Time;durP1;ratioP1;P1;durP2;ratioP2;P2;SDS_P1;SDS_P2;PMS_P1;PMS_P2;Temp;Humidity;BMP_temperature;BMP_pressure;BME280_temperature;BME280_humidity;BME280_pressure;Samples;Min_cycle;Max_cycle;Signal;HPM_P1;HPM_P2
2023/12/02 00:01:10;;;;;;;15.25;9.50;;;;;;;;;;5086132;28;20292;-51
2023/12/02 00:03:36;;;;;;;18.60;9.57;;;;;;;;;;5085652;28;20029;-47
2023/12/02 00:06:06;;;;;;;16.65;9.48;;;;;;;;;;5084993;28;20353;-48
2023/12/02 00:08:33;;;;;;;18.90;9.65;;;;;;;;;;5086368;28;20091;-46
2023/12/02 00:11:00;;;;;;;18.10;9.88;;;;;;;;;;5086354;28;20035;-48
2023/12/02 00:13:26;;;;;;;15.40;9.30;;;;;;;;;;5086161;28;20013;-48
2023/12/02 00:15:53;;;;;;;17.17;9.43;;;;;;;;;;5086009;28;20075;-45
2023/12/02 00:18:20;;;;;;;17.08;9.32;;;;;;;;;;5086155;28;20024;-47
2023/12/02 00:20:47;;;;;;;17.27;9.20;;;;;;;;;;5086018;28;20045;-48
2023/12/02 00:23:16;;;;;;;18.92;9.05;;;;;;;;;;5085210;28;20084;-46
2023/12/02 00:25:43;;;;;;;16.20;9.27;;;;;;;;;;5085553;28;20243;-50
2023/12/02 00:28:09;;;;;;;13.48;8.82;;;;;;;;;;5085905;28;20016;-50
2023/12/02 00:30:36;;;;;;;16.50;9.40;;;;;;;;;;5085561;28;20012;-50
2023/12/02 00:33:03;;;;;;;16.65;9.23;;;;;;;;;;5085897;28;20029;-45
2023/12/02 00:35:29;;;;;;;19.83;9.30;;;;;;;;;;5086337;28;20028;-46
2023/12/02 00:37:56;;;;;;;16.27;8.77;;;;;;;;;;5085291;28;20020;-47
2023/12/02 00:40:23;;;;;;;13.43;8.63;;;;;;;;;;5086201;28;20078;-55
2023/12/02 00:42:50;;;;;;;14.52;8.90;;;;;;;;;;5085077;28;20020;-47
2023/12/02 00:45:18;;;;;;;14.95;8.75;;;;;;;;;;5085326;28;20323;-51
2023/12/02 00:47:44;;;;;;;13.93;8.32;;;;;;;;;;5084861;28;20316;-47
2023/12/02 00:50:11;;;;;;;16.23;8.68;;;;;;;;;;5085348;28;20024;-50
2023/12/02 00:52:38;;;;;;;17.33;8.68;;;;;;;;;;5085007;28;20024;-48
2023/12/02 00:55:05;;;;;;;15.00;8.60;;;;;;;;;;5085313;28;20024;-48
2023/12/02 00:57:32;;;;;;;15.98;8.70;;;;;;;;;;5085046;28;20032;-48
2023/12/02 00:59:58;;;;;;;13.13;8.77;;;;;;;;;;5084412;28;20028;-47
2023/12/02 01:02:25;;;;;;;14.25;9.63;;;;;;;;;;5085149;28;20034;-53
2023/12/02 01:04:52;;;;;;;16.17;9.68;;;;;;;;;;5085086;28;20092;-45
2023/12/02 01:07:19;;;;;;;21.48;10.48;;;;;;;;;;5084811;28;20029;-50
2023/12/02 01:09:45;;;;;;;18.95;10.95;;;;;;;;;;5085201;28;20025;-51
2023/12/02 01:12:12;;;;;;;19.23;10.55;;;;;;;;;;5085119;28;20043;-49
2023/12/02 01:14:39;;;;;;;18.58;11.30;;;;;;;;;;5084825;28;20070;-45
2023/12/02 01:17:05;;;;;;;17.63;10.48;;;;;;;;;;5084590;28;20035;-45
2023/12/02 01:19:32;;;;;;;18.48;10.63;;;;;;;;;;5084665;28;20025;-50
2023/12/02 01:21:59;;;;;;;17.15;11.27;;;;;;;;;;5084744;28;20028;-46
2023/12/02 01:24:26;;;;;;;25.27;10.40;;;;;;;;;;5084407;28;20029;-51
2023/12/02 01:26:52;;;;;;;16.23;10.40;;;;;;;;;;5084536;28;20016;-49
2023/12/02 01:29:19;;;;;;;18.50;10.98;;;;;;;;;;5084908;28;20047;-49
2023/12/02 01:31:46;;;;;;;16.30;10.35;;;;;;;;;;5084477;28;20036;-47
2023/12/02 01:34:12;;;;;;;18.15;10.77;;;;;;;;;;5084813;28;20035;-51
2023/12/02 01:36:40;;;;;;;19.80;10.85;;;;;;;;;;5084334;28;20032;-55
2023/12/02 01:39:07;;;;;;;18.73;10.73;;;;;;;;;;5084224;28;20081;-48
2023/12/02 01:41:34;;;;;;;16.73;10.50;;;;;;;;;;5084583;28;20024;-46
2023/12/02 01:44:06;;;;;;;14.13;9.93;;;;;;;;;;5084216;28;20012;-51
2023/12/02 01:46:33;;;;;;;18.58;11.15;;;;;;;;;;5084346;28;20043;-45
2023/12/02 01:49:00;;;;;;;16.30;11.20;;;;;;;;;;5084371;28;20020;-48
2023/12/02 01:51:28;;;;;;;18.38;11.07;;;;;;;;;;5084134;28;20110;-45
2023/12/02 01:53:54;;;;;;;15.50;10.63;;;;;;;;;;5084707;28;20280;-47
2023/12/02 01:56:21;;;;;;;16.52;9.98;;;;;;;;;;5084169;28;20304;-50
2023/12/02 01:58:48;;;;;;;16.90;9.85;;;;;;;;;;5084437;28;20078;-49
2023/12/02 02:01:15;;;;;;;18.67;9.77;;;;;;;;;;5084534;28;20021;-46
2023/12/02 02:03:41;;;;;;;13.93;9.55;;;;;;;;;;5084708;28;20024;-46
2023/12/02 02:06:11;;;;;;;19.75;10.32;;;;;;;;;;5084648;28;20008;-47
2023/12/02 02:08:38;;;;;;;16.42;10.25;;;;;;;;;;5084411;28;20032;-48
2023/12/02 02:11:05;;;;;;;13.05;9.35;;;;;;;;;;5085860;28;20110;-47
2023/12/02 02:13:33;;;;;;;14.55;9.80;;;;;;;;;;5088364;28;20062;-48
2023/12/02 02:15:59;;;;;;;14.23;9.82;;;;;;;;;;5087955;28;20024;-47
2023/12/02 02:18:26;;;;;;;15.75;9.05;;;;;;;;;;5088144;28;20097;-49
2023/12/02 02:20:57;;;;;;;18.50;9.65;;;;;;;;;;5088137;28;20043;-44
2023/12/02 02:23:24;;;;;;;15.80;9.30;;;;;;;;;;5088305;28;20082;-46
2023/12/02 02:25:52;;;;;;;17.98;9.27;;;;;;;;;;5087540;28;20086;-47
2023/12/02 02:28:22;;;;;;;12.88;8.90;;;;;;;;;;5087668;28;20020;-45
2023/12/02 02:30:49;;;;;;;12.90;9.00;;;;;;;;;;5087438;28;20366;-46
2023/12/02 02:33:16;;;;;;;16.05;9.23;;;;;;;;;;5087613;28;20177;-46
2023/12/02 02:35:43;;;;;;;17.80;8.75;;;;;;;;;;5092049;28;20027;-46
2023/12/02 02:38:10;;;;;;;16.20;9.43;;;;;;;;;;5095739;28;20031;-47
2023/12/02 02:40:37;;;;;;;15.25;8.85;;;;;;;;;;5087028;28;20035;-48
2023/12/02 02:43:04;;;;;;;16.00;9.20;;;;;;;;;;5086819;28;20020;-48
2023/12/02 02:45:31;;;;;;;16.23;8.98;;;;;;;;;;5087393;28;20236;-50
2023/12/02 02:47:58;;;;;;;18.27;9.32;;;;;;;;;;5091399;28;20195;-51
2023/12/02 02:50:26;;;;;;;14.40;9.07;;;;;;;;;;5091410;28;20056;-58
2023/12/02 02:52:53;;;;;;;13.93;9.10;;;;;;;;;;5098531;28;20032;-51
2023/12/02 02:55:19;;;;;;;14.80;9.23;;;;;;;;;;5107560;28;20047;-48
2023/12/02 02:57:47;;;;;;;17.15;9.98;;;;;;;;;;5100488;28;20028;-51
2023/12/02 03:00:14;;;;;;;17.65;9.95;;;;;;;;;;5094576;28;20056;-52
2023/12/02 03:02:41;;;;;;;16.40;9.80;;;;;;;;;;5087809;28;20062;-48
2023/12/02 03:05:09;;;;;;;19.58;9.45;;;;;;;;;;5094746;28;20028;-49
2023/12/02 03:07:35;;;;;;;15.60;9.48;;;;;;;;;;5095456;28;20032;-52
2023/12/02 03:10:02;;;;;;;16.67;9.02;;;;;;;;;;5086937;28;20024;-48
2023/12/02 03:12:31;;;;;;;18.50;9.05;;;;;;;;;;5086398;28;20051;-51
2023/12/02 03:14:58;;;;;;;15.73;9.20;;;;;;;;;;5092742;28;20039;-53
2023/12/02 03:17:24;;;;;;;16.23;8.75;;;;;;;;;;5107002;28;20020;-56
2023/12/02 03:19:53;;;;;;;15.13;9.23;;;;;;;;;;5101872;28;20050;-56
2023/12/02 03:22:20;;;;;;;15.10;8.57;;;;;;;;;;5096596;28;20027;-58
2023/12/02 03:24:46;;;;;;;18.25;9.20;;;;;;;;;;5106633;28;20270;-47
2023/12/02 03:27:13;;;;;;;14.52;9.18;;;;;;;;;;5106412;28;20027;-50
2023/12/02 03:29:40;;;;;;;16.35;9.18;;;;;;;;;;5106916;28;20099;-51
2023/12/02 03:32:06;;;;;;;17.50;8.68;;;;;;;;;;5106448;28;20295;-49
2023/12/02 03:34:33;;;;;;;15.30;9.00;;;;;;;;;;5106642;28;20304;-52
2023/12/02 03:37:00;;;;;;;14.50;8.88;;;;;;;;;;5103996;28;20336;-52
2023/12/02 03:39:26;;;;;;;17.60;8.32;;;;;;;;;;5094746;28;20028;-54
2023/12/02 03:41:53;;;;;;;13.68;8.90;;;;;;;;;;5106233;28;20079;-51
2023/12/02 03:44:20;;;;;;;15.68;8.82;;;;;;;;;;5106295;28;20243;-53
2023/12/02 03:46:46;;;;;;;15.75;10.45;;;;;;;;;;5106098;28;20022;-49
2023/12/02 03:49:13;;;;;;;15.93;10.63;;;;;;;;;;5106240;28;20181;-52
2023/12/02 03:51:40;;;;;;;16.30;9.68;;;;;;;;;;5106082;28;20028;-49
2023/12/02 03:54:07;;;;;;;14.63;9.38;;;;;;;;;;5097613;28;20032;-55
2023/12/02 03:56:35;;;;;;;15.27;9.13;;;;;;;;;;5085681;28;20328;-52
2023/12/02 03:59:02;;;;;;;15.40;9.18;;;;;;;;;;5085569;28;20093;-54
2023/12/02 04:01:29;;;;;;;20.77;9.27;;;;;;;;;;5085861;28;20339;-52
2023/12/02 04:03:57;;;;;;;15.75;8.73;;;;;;;;;;5088020;28;20033;-48
2023/12/02 04:06:24;;;;;;;24.38;8.90;;;;;;;;;;5085293;28;20098;-48
2023/12/02 04:08:50;;;;;;;12.73;7.82;;;;;;;;;;5085321;28;20026;-50
2023/12/02 04:11:18;;;;;;;14.60;8.30;;;;;;;;;;5085354;28;20312;-51
2023/12/02 04:13:45;;;;;;;12.23;8.23;;;;;;;;;;5085259;28;20292;-49
2023/12/02 04:16:12;;;;;;;11.13;7.45;;;;;;;;;;5085254;28;20083;-53
2023/12/02 04:18:38;;;;;;;11.48;7.43;;;;;;;;;;5085334;28;20062;-56
2023/12/02 04:21:08;;;;;;;13.25;7.90;;;;;;;;;;5084858;28;20049;-47
2023/12/02 04:23:35;;;;;;;16.15;8.48;;;;;;;;;;5085080;28;20039;-49
2023/12/02 04:26:02;;;;;;;12.00;8.23;;;;;;;;;;5085050;28;20260;-49
2023/12/02 04:28:29;;;;;;;10.30;8.13;;;;;;;;;;5084813;28;20036;-50
2023/12/02 04:30:55;;;;;;;12.48;8.27;;;;;;;;;;5085021;28;20313;-51
2023/12/02 04:33:22;;;;;;;12.68;8.27;;;;;;;;;;5084751;28;20024;-47
2023/12/02 04:35:50;;;;;;;13.75;7.70;;;;;;;;;;5083591;28;20075;-49
2023/12/02 04:38:17;;;;;;;14.98;7.93;;;;;;;;;;5084675;28;20031;-51
2023/12/02 04:40:44;;;;;;;11.00;7.47;;;;;;;;;;5084876;28;20017;-48
2023/12/02 04:43:11;;;;;;;12.70;8.18;;;;;;;;;;5084441;28;20198;-50
2023/12/02 04:45:38;;;;;;;14.77;8.10;;;;;;;;;;5085071;28;20031;-50
2023/12/02 04:48:04;;;;;;;12.80;8.23;;;;;;;;;;5084727;28;20028;-50
2023/12/02 04:50:31;;;;;;;13.13;7.90;;;;;;;;;;5089949;28;20227;-49
2023/12/02 04:52:58;;;;;;;12.70;7.97;;;;;;;;;;5094788;28;20016;-48
2023/12/02 04:55:25;;;;;;;12.32;7.95;;;;;;;;;;5105350;28;20068;-48
2023/12/02 04:57:51;;;;;;;9.10;7.82;;;;;;;;;;5095459;28;20031;-51
2023/12/02 05:00:18;;;;;;;11.07;7.40;;;;;;;;;;5084834;28;20028;-52
2023/12/02 05:02:45;;;;;;;11.55;8.52;;;;;;;;;;5104300;28;20366;-50
2023/12/02 05:05:15;;;;;;;13.90;7.72;;;;;;;;;;5103122;28;20053;-53
2023/12/02 05:07:42;;;;;;;14.85;7.80;;;;;;;;;;5102772;28;20012;-54
2023/12/02 05:10:10;;;;;;;11.02;7.60;;;;;;;;;;5103167;28;20059;-53
2023/12/02 05:12:36;;;;;;;14.98;7.65;;;;;;;;;;5102670;28;20081;-53
2023/12/02 05:15:04;;;;;;;13.30;7.97;;;;;;;;;;5103074;28;20125;-55
2023/12/02 05:17:32;;;;;;;14.88;7.45;;;;;;;;;;5102772;28;20044;-57
2023/12/02 05:19:59;;;;;;;11.85;7.60;;;;;;;;;;5103841;28;20052;-58
2023/12/02 05:22:25;;;;;;;10.55;7.80;;;;;;;;;;5104459;28;20024;-56
2023/12/02 05:24:52;;;;;;;10.90;7.57;;;;;;;;;;5104690;28;20235;-56
2023/12/02 05:27:19;;;;;;;12.30;7.28;;;;;;;;;;5104575;28;20027;-52
2023/12/02 05:29:45;;;;;;;9.65;6.88;;;;;;;;;;5104526;28;20020;-51
2023/12/02 05:32:13;;;;;;;11.48;7.75;;;;;;;;;;5104776;28;20047;-52
2023/12/02 05:34:40;;;;;;;10.90;7.57;;;;;;;;;;5104307;28;20039;-52
2023/12/02 05:37:06;;;;;;;13.00;7.70;;;;;;;;;;5104291;28;20024;-52
2023/12/02 05:39:35;;;;;;;10.85;7.25;;;;;;;;;;5104674;28;20300;-51
2023/12/02 05:42:02;;;;;;;11.50;7.65;;;;;;;;;;5103906;28;20032;-52
2023/12/02 05:44:29;;;;;;;12.20;8.30;;;;;;;;;;5103559;28;20096;-50
2023/12/02 05:46:55;;;;;;;11.68;7.28;;;;;;;;;;5103671;28;20020;-50
2023/12/02 05:49:22;;;;;;;11.23;7.40;;;;;;;;;;5104540;28;20120;-53
2023/12/02 05:51:49;;;;;;;13.90;8.30;;;;;;;;;;5104153;28;20094;-53
2023/12/02 05:54:15;;;;;;;14.13;7.65;;;;;;;;;;5104036;28;20028;-55
2023/12/02 05:56:42;;;;;;;11.48;7.88;;;;;;;;;;5103902;28;20028;-54
2023/12/02 05:59:09;;;;;;;15.40;8.10;;;;;;;;;;5104149;28;20031;-54
2023/12/02 06:01:36;;;;;;;10.35;7.55;;;;;;;;;;5104522;28;20086;-52
2023/12/02 06:04:03;;;;;;;16.25;7.95;;;;;;;;;;5104200;28;20327;-52
2023/12/02 06:06:29;;;;;;;10.85;7.82;;;;;;;;;;5104416;28;20200;-51
2023/12/02 06:08:56;;;;;;;10.88;7.55;;;;;;;;;;5104188;28;20035;-52
2023/12/02 06:11:23;;;;;;;12.35;7.72;;;;;;;;;;5104158;28;20033;-54
2023/12/02 06:13:49;;;;;;;12.05;7.90;;;;;;;;;;5104208;28;20036;-53
2023/12/02 06:16:16;;;;;;;10.88;7.03;;;;;;;;;;5103764;28;20062;-55
2023/12/02 06:18:43;;;;;;;12.27;7.82;;;;;;;;;;5104110;28;20186;-55
2023/12/02 06:21:12;;;;;;;14.65;7.55;;;;;;;;;;5103597;28;20044;-52
2023/12/02 06:23:40;;;;;;;11.40;7.82;;;;;;;;;;5103739;28;20024;-52
2023/12/02 06:26:07;;;;;;;11.18;7.57;;;;;;;;;;5104137;28;20031;-57
2023/12/02 06:28:34;;;;;;;12.32;7.05;;;;;;;;;;5103743;28;20024;-52
2023/12/02 06:31:00;;;;;;;11.43;7.47;;;;;;;;;;5104079;28;20020;-52
2023/12/02 06:33:27;;;;;;;12.50;7.60;;;;;;;;;;5103746;28;20308;-54
2023/12/02 06:35:54;;;;;;;10.48;7.65;;;;;;;;;;5103856;28;20051;-52
2023/12/02 06:38:21;;;;;;;12.70;7.85;;;;;;;;;;5103586;28;20079;-52
2023/12/02 06:40:48;;;;;;;16.27;7.78;;;;;;;;;;5103525;28;20031;-56
2023/12/02 06:43:15;;;;;;;9.93;7.10;;;;;;;;;;5103303;28;20020;-54
2023/12/02 06:45:41;;;;;;;12.15;7.07;;;;;;;;;;5104051;28;20250;-53
2023/12/02 06:48:08;;;;;;;12.88;7.65;;;;;;;;;;5103580;28;20088;-52
2023/12/02 06:50:35;;;;;;;10.85;7.25;;;;;;;;;;5103448;28;20087;-52
2023/12/02 06:53:02;;;;;;;9.40;6.97;;;;;;;;;;5103580;28;20087;-55
2023/12/02 06:55:31;;;;;;;12.27;6.70;;;;;;;;;;5103891;28;20308;-57
2023/12/02 06:57:59;;;;;;;11.02;7.20;;;;;;;;;;5104452;28;20048;-54
2023/12/02 07:00:26;;;;;;;12.25;7.43;;;;;;;;;;5107707;28;20046;-52
2023/12/02 07:02:52;;;;;;;13.23;7.35;;;;;;;;;;5107361;28;20035;-53
2023/12/02 07:05:19;;;;;;;13.10;6.82;;;;;;;;;;5107714;28;20027;-55
2023/12/02 07:07:46;;;;;;;11.27;7.13;;;;;;;;;;5107176;28;20039;-52
2023/12/02 07:10:13;;;;;;;10.13;7.43;;;;;;;;;;5107215;28;20323;-52
2023/12/02 07:12:40;;;;;;;13.25;7.13;;;;;;;;;;5106893;28;20027;-52
2023/12/02 07:15:08;;;;;;;9.35;6.88;;;;;;;;;;5107287;28;20043;-48
2023/12/02 07:17:35;;;;;;;12.80;7.10;;;;;;;;;;5106949;28;20028;-52
2023/12/02 07:20:01;;;;;;;10.35;7.63;;;;;;;;;;5106991;28;20259;-52
2023/12/02 07:22:28;;;;;;;10.18;6.57;;;;;;;;;;5106706;28;20069;-52
2023/12/02 07:24:55;;;;;;;9.15;6.75;;;;;;;;;;5106983;28;20028;-53
2023/12/02 07:27:21;;;;;;;10.93;7.10;;;;;;;;;;5106534;28;20024;-53
2023/12/02 07:29:48;;;;;;;10.32;6.97;;;;;;;;;;5106899;28;20024;-52
2023/12/02 07:32:15;;;;;;;9.55;7.05;;;;;;;;;;5106505;28;20245;-54
2023/12/02 07:34:42;;;;;;;11.10;6.75;;;;;;;;;;5106817;28;20090;-54
2023/12/02 07:37:09;;;;;;;11.10;6.90;;;;;;;;;;5106690;28;20062;-56
2023/12/02 07:39:36;;;;;;;8.63;6.88;;;;;;;;;;5106795;28;20028;-54
2023/12/02 07:42:02;;;;;;;10.38;7.00;;;;;;;;;;5106032;28;20050;-52
2023/12/02 07:44:30;;;;;;;8.25;6.28;;;;;;;;;;5106867;28;20023;-51
2023/12/02 07:46:57;;;;;;;11.95;7.18;;;;;;;;;;5106197;28;20035;-50
2023/12/02 07:49:24;;;;;;;11.40;6.50;;;;;;;;;;5106144;28;20031;-49
2023/12/02 07:51:50;;;;;;;13.73;6.97;;;;;;;;;;5106179;28;20020;-46
2023/12/02 07:54:17;;;;;;;10.25;6.93;;;;;;;;;;5106287;28;20364;-49
2023/12/02 07:56:44;;;;;;;10.48;7.00;;;;;;;;;;5106009;28;20024;-53
2023/12/02 07:59:10;;;;;;;10.85;7.03;;;;;;;;;;5106148;28;20020;-53
2023/12/02 08:01:37;;;;;;;11.27;7.18;;;;;;;;;;5105907;28;20036;-52
2023/12/02 08:04:04;;;;;;;9.90;6.70;;;;;;;;;;5106223;28;20020;-52
2023/12/02 08:06:31;;;;;;;8.50;6.30;;;;;;;;;;5106166;28;20020;-54
2023/12/02 08:08:58;;;;;;;8.77;6.75;;;;;;;;;;5105763;28;20028;-53
2023/12/02 08:11:24;;;;;;;8.95;6.70;;;;;;;;;;5105865;28;20312;-56
2023/12/02 08:13:51;;;;;;;8.80;6.38;;;;;;;;;;5105936;28;20028;-48
2023/12/02 08:16:18;;;;;;;9.35;6.93;;;;;;;;;;5105976;28;20027;-54
2023/12/02 08:18:44;;;;;;;10.68;6.40;;;;;;;;;;5105614;28;20028;-59
2023/12/02 08:21:11;;;;;;;11.60;7.15;;;;;;;;;;5105560;28;20040;-52
2023/12/02 08:23:38;;;;;;;11.07;6.50;;;;;;;;;;5105925;28;20373;-53
2023/12/02 08:26:05;;;;;;;9.27;6.35;;;;;;;;;;5105315;28;20016;-53
2023/12/02 08:28:32;;;;;;;9.63;6.47;;;;;;;;;;5106059;28;20330;-53
2023/12/02 08:30:58;;;;;;;10.32;6.93;;;;;;;;;;5105631;28;20043;-55
2023/12/02 08:33:25;;;;;;;10.35;6.93;;;;;;;;;;5105323;28;20027;-52
2023/12/02 08:35:52;;;;;;;9.77;6.60;;;;;;;;;;5105531;28;20028;-56
2023/12/02 08:38:18;;;;;;;11.43;7.22;;;;;;;;;;5105316;28;20032;-52
2023/12/02 08:40:45;;;;;;;12.93;7.00;;;;;;;;;;5105182;28;20091;-51
2023/12/02 08:43:12;;;;;;;10.63;6.70;;;;;;;;;;5105192;28;20313;-53
2023/12/02 08:45:39;;;;;;;10.70;6.20;;;;;;;;;;5105264;28;20024;-51
2023/12/02 08:48:06;;;;;;;12.13;6.90;;;;;;;;;;5105085;28;20016;-52
2023/12/02 08:50:33;;;;;;;9.02;6.80;;;;;;;;;;5105660;28;20065;-54
2023/12/02 08:53:00;;;;;;;11.02;7.18;;;;;;;;;;5104983;28;20020;-53
2023/12/02 08:55:27;;;;;;;13.38;7.28;;;;;;;;;;5103627;28;20021;-54
2023/12/02 08:57:53;;;;;;;9.73;6.40;;;;;;;;;;5092682;28;20020;-52
2023/12/02 09:00:20;;;;;;;9.27;6.90;;;;;;;;;;5102805;28;20077;-52
2023/12/02 09:02:47;;;;;;;12.10;7.32;;;;;;;;;;5105171;28;20027;-54
2023/12/02 09:05:14;;;;;;;9.43;6.90;;;;;;;;;;5105024;28;20020;-52
2023/12/02 09:07:41;;;;;;;10.15;6.70;;;;;;;;;;5104839;28;20024;-52
2023/12/02 09:10:08;;;;;;;13.05;7.05;;;;;;;;;;5105084;28;20035;-52
2023/12/02 09:12:35;;;;;;;9.88;7.00;;;;;;;;;;5104782;28;20028;-56
2023/12/02 09:15:06;;;;;;;11.82;7.18;;;;;;;;;;5104835;28;20028;-52
2023/12/02 09:17:39;;;;;;;15.38;7.20;;;;;;;;;;5104589;28;20020;-53
2023/12/02 09:20:06;;;;;;;12.20;6.00;;;;;;;;;;5103857;28;20044;-53
2023/12/02 09:22:49;;;;;;;10.10;7.05;;;;;;;;;;5104459;28;20375;-53
2023/12/02 09:25:26;;;;;;;9.35;7.00;;;;;;;;;;5104938;28;20032;-52
2023/12/02 09:27:55;;;;;;;13.75;7.13;;;;;;;;;;5104358;28;20016;-48
2023/12/02 09:30:22;;;;;;;11.23;6.60;;;;;;;;;;5104747;28;20051;-55
2023/12/02 09:32:49;;;;;;;12.75;6.80;;;;;;;;;;5104476;28;20039;-56
2023/12/02 09:35:15;;;;;;;15.52;6.72;;;;;;;;;;5104833;28;20072;-52
2023/12/02 09:37:42;;;;;;;14.73;7.10;;;;;;;;;;5104347;28;20298;-55
2023/12/02 09:40:21;;;;;;;11.65;6.72;;;;;;;;;;5104673;28;20040;-53
2023/12/02 09:43:04;;;;;;;10.52;6.57;;;;;;;;;;5104523;28;20078;-54
2023/12/02 09:45:40;;;;;;;10.05;7.03;;;;;;;;;;5104572;28;20028;-50
2023/12/02 09:48:14;;;;;;;11.50;6.88;;;;;;;;;;5104151;28;20228;-54
2023/12/02 09:50:54;;;;;;;8.90;6.22;;;;;;;;;;5104075;28;20048;-51
2023/12/02 09:53:49;;;;;;;10.93;6.57;;;;;;;;;;5104117;28;20028;-52
2023/12/02 09:56:20;;;;;;;10.45;6.38;;;;;;;;;;5087160;28;20042;-47
2023/12/02 09:58:47;;;;;;;12.25;7.03;;;;;;;;;;5104241;28;20032;-52
2023/12/02 10:01:14;;;;;;;17.17;7.18;;;;;;;;;;5103880;28;20024;-52
2023/12/02 10:03:47;;;;;;;11.60;8.98;;;;;;;;;;5104106;28;20314;-53
2023/12/02 10:06:28;;;;;;;14.98;11.68;;;;;;;;;;5104173;28;20082;-53
2023/12/02 10:08:58;;;;;;;16.75;12.23;;;;;;;;;;5104011;28;20032;-56
2023/12/02 10:11:45;;;;;;;17.27;12.05;;;;;;;;;;5103747;28;20028;-56
2023/12/02 10:14:12;;;;;;;16.90;11.98;;;;;;;;;;5063131;28;20050;-52
2023/12/02 10:16:41;;;;;;;16.20;10.00;;;;;;;;;;5103713;28;20024;-54
2023/12/02 10:19:12;;;;;;;12.95;9.63;;;;;;;;;;5104291;28;20024;-53
2023/12/02 10:21:44;;;;;;;11.73;8.65;;;;;;;;;;5103611;28;20336;-52
2023/12/02 10:24:12;;;;;;;11.80;8.05;;;;;;;;;;5104076;28;20038;-51
2023/12/02 10:26:47;;;;;;;8.75;7.05;;;;;;;;;;5103803;28;20047;-52
2023/12/02 10:29:24;;;;;;;11.50;7.95;;;;;;;;;;5099936;28;20032;-52
2023/12/02 10:32:02;;;;;;;12.15;7.32;;;;;;;;;;5104406;28;20024;-52
2023/12/02 10:34:31;;;;;;;9.75;6.60;;;;;;;;;;5087489;28;20047;-52
2023/12/02 10:37:00;;;;;;;12.52;6.68;;;;;;;;;;5087340;28;20237;-52
2023/12/02 10:39:27;;;;;;;10.35;6.20;;;;;;;;;;5087005;28;20066;-51
2023/12/02 10:41:59;;;;;;;11.93;7.07;;;;;;;;;;5086994;28;20074;-54
2023/12/02 10:44:29;;;;;;;12.10;6.93;;;;;;;;;;5087381;28;20074;-52
2023/12/02 10:46:57;;;;;;;11.07;6.70;;;;;;;;;;5087023;28;20047;-52
2023/12/02 10:49:23;;;;;;;13.05;7.13;;;;;;;;;;5087251;28;20017;-49
2023/12/02 10:51:51;;;;;;;12.18;6.70;;;;;;;;;;5087113;28;20204;-53
2023/12/02 10:54:20;;;;;;;12.25;6.30;;;;;;;;;;5104343;28;20146;-60
2023/12/02 10:56:47;;;;;;;12.48;6.50;;;;;;;;;;5106847;28;20254;-53
2023/12/02 10:59:14;;;;;;;14.13;6.97;;;;;;;;;;5107190;28;20027;-53
2023/12/02 11:01:53;;;;;;;10.45;6.22;;;;;;;;;;5112879;28;20019;-53
2023/12/02 11:04:33;;;;;;;10.45;6.97;;;;;;;;;;5127631;28;20024;-54
2023/12/02 11:07:04;;;;;;;14.45;6.40;;;;;;;;;;5127272;28;20031;-54
2023/12/02 11:09:49;;;;;;;11.57;5.68;;;;;;;;;;5114259;28;20012;-57
2023/12/02 11:12:19;;;;;;;15.80;6.18;;;;;;;;;;5098324;28;20024;-54
2023/12/02 11:14:48;;;;;;;13.90;6.28;;;;;;;;;;5097678;28;20023;-54
2023/12/02 11:17:38;;;;;;;13.70;6.03;;;;;;;;;;5106562;28;20026;-53
2023/12/02 11:20:09;;;;;;;12.27;6.47;;;;;;;;;;5091640;28;20056;-58
2023/12/02 11:22:41;;;;;;;15.45;6.88;;;;;;;;;;5112603;28;20094;-57
2023/12/02 11:25:07;;;;;;;9.18;6.32;;;;;;;;;;5120842;28;20027;-54
2023/12/02 11:27:43;;;;;;;14.05;7.07;;;;;;;;;;5123622;28;20026;-52
2023/12/02 11:30:19;;;;;;;10.00;6.75;;;;;;;;;;5118649;28;20047;-52
2023/12/02 11:32:56;;;;;;;14.10;7.85;;;;;;;;;;5123755;28;20269;-52
2023/12/02 11:35:26;;;;;;;10.38;6.60;;;;;;;;;;5123323;28;20031;-58
2023/12/02 11:37:57;;;;;;;13.23;6.75;;;;;;;;;;5118248;28;20032;-51
2023/12/02 11:40:27;;;;;;;13.75;6.38;;;;;;;;;;5125491;28;20078;-53
2023/12/02 11:42:59;;;;;;;10.90;6.60;;;;;;;;;;5123813;28;20023;-51
2023/12/02 11:45:30;;;;;;;14.57;6.47;;;;;;;;;;5125229;28;20195;-49
2023/12/02 11:48:12;;;;;;;11.23;6.60;;;;;;;;;;5124895;28;20080;-52
2023/12/02 11:51:01;;;;;;;16.15;7.78;;;;;;;;;;5124820;28;20035;-54
2023/12/02 11:53:39;;;;;;;10.23;7.28;;;;;;;;;;5105362;28;20019;-51
2023/12/02 11:56:13;;;;;;;14.95;7.47;;;;;;;;;;5124956;28;20099;-51
2023/12/02 11:58:46;;;;;;;13.70;6.75;;;;;;;;;;5124713;28;20031;-53
2023/12/02 12:01:33;;;;;;;12.68;6.28;;;;;;;;;;5124688;28;20031;-53
2023/12/02 12:04:26;;;;;;;12.13;6.28;;;;;;;;;;5124676;28;20031;-52
2023/12/02 12:07:04;;;;;;;9.88;6.25;;;;;;;;;;5124440;28;20219;-52
2023/12/02 12:09:38;;;;;;;12.07;6.60;;;;;;;;;;5124353;28;20240;-55
2023/12/02 12:12:06;;;;;;;13.43;6.15;;;;;;;;;;5127176;28;20331;-51
2023/12/02 12:14:34;;;;;;;12.70;6.20;;;;;;;;;;5127187;28;20244;-50
2023/12/02 12:17:00;;;;;;;11.25;6.35;;;;;;;;;;5126730;28;20016;-52
2023/12/02 12:19:28;;;;;;;11.55;6.15;;;;;;;;;;5126537;28;20031;-51
2023/12/02 12:21:56;;;;;;;10.10;6.03;;;;;;;;;;5126285;28;20023;-49
2023/12/02 12:24:23;;;;;;;10.30;6.00;;;;;;;;;;5126753;28;20019;-51
2023/12/02 12:26:50;;;;;;;13.13;6.20;;;;;;;;;;5126677;28;20092;-49
2023/12/02 12:29:17;;;;;;;10.13;5.63;;;;;;;;;;5126226;28;20016;-53
2023/12/02 12:31:43;;;;;;;14.15;6.50;;;;;;;;;;5125966;28;20022;-52
2023/12/02 12:34:13;;;;;;;7.55;5.95;;;;;;;;;;5126304;28;20316;-52
2023/12/02 12:36:43;;;;;;;10.55;6.38;;;;;;;;;;5125690;28;20100;-53
2023/12/02 12:39:11;;;;;;;10.75;5.82;;;;;;;;;;5126564;28;20275;-51
2023/12/02 12:41:39;;;;;;;12.45;6.00;;;;;;;;;;5125862;28;20043;-58
2023/12/02 12:44:06;;;;;;;12.63;5.88;;;;;;;;;;5125946;28;20075;-50
2023/12/02 12:46:33;;;;;;;10.50;6.15;;;;;;;;;;5125825;28;20016;-52
2023/12/02 12:49:04;;;;;;;9.85;6.00;;;;;;;;;;5125639;28;20031;-51
2023/12/02 12:51:50;;;;;;;13.57;6.47;;;;;;;;;;5125613;28;20208;-50
2023/12/02 12:54:19;;;;;;;12.70;6.45;;;;;;;;;;5125892;28;20076;-51
2023/12/02 12:56:54;;;;;;;11.70;6.57;;;;;;;;;;5125970;28;20027;-47
2023/12/02 12:59:26;;;;;;;15.75;6.60;;;;;;;;;;5126030;28;20077;-52
2023/12/02 13:01:59;;;;;;;11.80;6.78;;;;;;;;;;5125665;28;20047;-49
2023/12/02 13:04:49;;;;;;;10.48;5.88;;;;;;;;;;5125843;28;20086;-48
2023/12/02 13:07:17;;;;;;;11.52;6.55;;;;;;;;;;5112717;28;20036;-47
2023/12/02 13:09:46;;;;;;;15.05;6.45;;;;;;;;;;5125713;28;20141;-51
2023/12/02 13:12:14;;;;;;;13.55;6.25;;;;;;;;;;5125274;28;20271;-49
2023/12/02 13:14:52;;;;;;;12.32;6.15;;;;;;;;;;5125648;28;20019;-50
2023/12/02 13:17:19;;;;;;;9.90;6.10;;;;;;;;;;5125543;28;20027;-52
2023/12/02 13:19:47;;;;;;;9.70;5.82;;;;;;;;;;5125006;28;20033;-47
2023/12/02 13:22:15;;;;;;;11.85;6.00;;;;;;;;;;5125102;28;20069;-49
2023/12/02 13:25:04;;;;;;;10.23;6.13;;;;;;;;;;5125472;28;20220;-47
2023/12/02 13:27:41;;;;;;;12.38;6.30;;;;;;;;;;5125087;28;20312;-48
2023/12/02 13:30:09;;;;;;;12.23;6.38;;;;;;;;;;5125903;28;20032;-50
2023/12/02 13:32:37;;;;;;;12.02;5.88;;;;;;;;;;5116696;28;20051;-47
2023/12/02 13:35:04;;;;;;;10.50;6.07;;;;;;;;;;5125839;28;20077;-49
2023/12/02 13:37:38;;;;;;;9.57;5.97;;;;;;;;;;5125011;28;20023;-49
2023/12/02 13:40:06;;;;;;;11.77;6.30;;;;;;;;;;5125870;28;20046;-51
2023/12/02 13:42:39;;;;;;;12.45;5.95;;;;;;;;;;5116586;28;20069;-51
2023/12/02 13:45:12;;;;;;;11.93;6.07;;;;;;;;;;5125183;28;20076;-50
2023/12/02 13:47:51;;;;;;;11.75;6.00;;;;;;;;;;5124586;28;20020;-50
2023/12/02 13:50:19;;;;;;;14.63;5.90;;;;;;;;;;5124872;28;20031;-50
2023/12/02 13:53:03;;;;;;;11.05;6.03;;;;;;;;;;5124321;28;20026;-51
2023/12/02 13:55:46;;;;;;;9.10;6.25;;;;;;;;;;5124197;28;20024;-55
2023/12/02 13:58:21;;;;;;;16.10;6.63;;;;;;;;;;5124364;28;20087;-56
2023/12/02 14:00:52;;;;;;;14.55;6.10;;;;;;;;;;5124936;28;20042;-55
2023/12/02 14:03:40;;;;;;;14.30;6.20;;;;;;;;;;5125227;28;20019;-54
2023/12/02 14:06:27;;;;;;;12.25;6.28;;;;;;;;;;5124989;28;20050;-54
2023/12/02 14:08:59;;;;;;;16.10;6.72;;;;;;;;;;5074522;28;20035;-53
2023/12/02 14:11:39;;;;;;;12.97;6.27;;;;;;;;;;5129088;28;20090;-55
2023/12/02 14:14:22;;;;;;;11.60;6.00;;;;;;;;;;5129410;28;20023;-55
2023/12/02 14:17:03;;;;;;;11.88;6.57;;;;;;;;;;5129065;28;20059;-52
2023/12/02 14:19:30;;;;;;;12.95;6.30;;;;;;;;;;5129410;28;20019;-55
2023/12/02 14:21:57;;;;;;;11.65;6.68;;;;;;;;;;5128783;28;20094;-53
2023/12/02 14:24:42;;;;;;;14.00;6.78;;;;;;;;;;5129378;28;20015;-55
2023/12/02 14:27:26;;;;;;;13.75;6.78;;;;;;;;;;5128209;28;20016;-57
2023/12/02 14:30:12;;;;;;;10.52;6.53;;;;;;;;;;5128478;28;20028;-55
2023/12/02 14:32:59;;;;;;;14.55;6.60;;;;;;;;;;5127966;28;20298;-54
2023/12/02 14:35:28;;;;;;;11.68;7.07;;;;;;;;;;5128794;28;20074;-54
2023/12/02 14:38:01;;;;;;;15.15;7.38;;;;;;;;;;5127943;28;20075;-55
2023/12/02 14:40:45;;;;;;;11.48;7.10;;;;;;;;;;5127827;28;20031;-55
2023/12/02 14:43:18;;;;;;;11.85;6.70;;;;;;;;;;5127540;28;20042;-54